»·PEaware :: N4D KSBP-KLGB

N4D :: KSBP-KLGB

FLIGHT INFORMATION

Flight Status: Arrived
Operator: Privately registered:
United States
More flights under this callsign
Pilot: Alec D. (17934)
Aircraft: BEECH AIRCRAFT A90-E90 KING AIR
(BE9L)
More flights by this aircraft type
Origin: KSBP San Luis Co Regl
United States
Destination: KLGB Long Beach
United States
More flights between these airports :: More routes between these airports
Route: RZS VTU V208 SXC SLI
File this flight plan on PilotEdge
Remarks:
Altitude:
(Current/Filed)
17,000ft
Speed:
(Current/Filed)
240kts
Departed: 24-Jul-18 09:36 AM
Arrived: 24-Jul-18 10:39 AM
Distance/Time
Traveled:
150nm/1:03
Distance/Time
To Go:
Arrived

Flight Plot

Page will automatically refresh every two minutes.


Map Options




Map Legend


Flown Route
Filed Route
Departure Airport
Arrival Airport
Navaid (VOR, NDB)
Fix

Horizontal Profiles

Position Reports

Time Latitude Longitude Heading Altitude Ground
Speed
24-Jul-18 08:55 35.238276 -120.639170 267 217ft 0kts
24-Jul-18 08:56 35.238276 -120.639170 267 217ft 0kts
24-Jul-18 08:57 35.238276 -120.639170 267 217ft 0kts
24-Jul-18 08:58 35.238276 -120.639170 267 217ft 0kts
24-Jul-18 08:59 35.238276 -120.639170 267 217ft 0kts
24-Jul-18 09:00 35.238276 -120.639170 267 217ft 0kts
24-Jul-18 09:01 35.238276 -120.639170 267 217ft 0kts
24-Jul-18 09:02 35.238276 -120.639170 267 217ft 0kts
24-Jul-18 09:03 35.238276 -120.639170 267 217ft 0kts
24-Jul-18 09:04 35.238276 -120.639170 267 217ft 0kts
24-Jul-18 09:05 35.238276 -120.639170 267 217ft 0kts
24-Jul-18 09:06 35.238276 -120.639170 267 217ft 0kts
24-Jul-18 09:07 35.238276 -120.639170 267 217ft 0kts
24-Jul-18 09:08 35.238276 -120.639170 267 217ft 0kts
24-Jul-18 09:09 35.238276 -120.639170 267 217ft 0kts
24-Jul-18 09:10 35.238276 -120.639170 267 217ft 0kts
24-Jul-18 09:11 35.238276 -120.639170 267 217ft 0kts
24-Jul-18 09:12 35.238276 -120.639170 267 217ft 0kts
24-Jul-18 09:13 35.238276 -120.639173 267 217ft 0kts
24-Jul-18 09:14 35.238275 -120.639180 267 217ft 0kts
24-Jul-18 09:15 35.238275 -120.639186 267 217ft 0kts
24-Jul-18 09:16 35.238275 -120.639193 267 217ft 0kts
24-Jul-18 09:17 35.238275 -120.639199 267 217ft 0kts
24-Jul-18 09:18 35.238275 -120.639206 267 217ft 0kts
24-Jul-18 09:19 35.238275 -120.639212 267 217ft 0kts
24-Jul-18 09:20 35.238274 -120.639219 267 217ft 0kts
24-Jul-18 09:21 35.238274 -120.639225 267 217ft 0kts
24-Jul-18 09:22 35.238274 -120.639232 267 217ft 0kts
24-Jul-18 09:23 35.238274 -120.639238 267 217ft 0kts
24-Jul-18 09:24 35.238274 -120.639244 267 217ft 0kts
24-Jul-18 09:25 35.238273 -120.639250 267 217ft 0kts
24-Jul-18 09:26 35.238273 -120.639257 267 217ft 0kts
24-Jul-18 09:27 35.238273 -120.639263 267 217ft 0kts
24-Jul-18 09:28 35.238273 -120.639269 267 217ft 0kts
24-Jul-18 09:29 35.238273 -120.639276 267 217ft 0kts
24-Jul-18 09:30 35.238273 -120.639282 267 217ft 0kts
24-Jul-18 09:31 35.238272 -120.639289 267 217ft 0kts
24-Jul-18 09:32 35.236563 -120.637691 120 217ft 23kts
24-Jul-18 09:33 35.233347 -120.632592 201 217ft 0kts
24-Jul-18 09:34 35.233343 -120.632594 201 217ft 0kts
24-Jul-18 09:35 35.233340 -120.632596 201 217ft 0kts
24-Jul-18 09:36 35.232898 -120.633207 303 217ft 0kts
24-Jul-18 09:37 35.245364 -120.656024 304 769ft 122kts
24-Jul-18 09:38 35.263693 -120.694663 300 2270ft 134kts
24-Jul-18 09:39 35.282538 -120.739437 299 3485ft 154kts
24-Jul-18 09:40 35.301729 -120.786518 300 4652ft 154kts
24-Jul-18 09:41 35.320793 -120.833865 299 5830ft 157kts
24-Jul-18 09:42 35.340752 -120.883242 299 6895ft 163kts
24-Jul-18 09:43 35.361207 -120.933962 300 7910ft 174kts
24-Jul-18 09:44 35.342686 -120.981934 179 8022ft 223kts
24-Jul-18 09:45 35.295618 -120.933835 127 8058ft 228kts
24-Jul-18 09:46 35.263706 -120.885806 127 8865ft 213kts
24-Jul-18 09:47 35.224258 -120.826579 127 9002ft 231kts
24-Jul-18 09:48 35.176161 -120.754530 127 8996ft 236kts
24-Jul-18 09:49 35.134300 -120.691942 127 8996ft 237kts
24-Jul-18 09:50 35.099477 -120.639956 127 8996ft 237kts
24-Jul-18 09:51 35.057217 -120.576970 127 8996ft 240kts
24-Jul-18 09:52 35.007954 -120.503708 127 8997ft 238kts
24-Jul-18 09:53 34.965771 -120.441083 127 8992ft 240kts
24-Jul-18 09:54 34.930691 -120.389107 127 8994ft 238kts
24-Jul-18 09:55 34.888640 -120.326913 127 8996ft 236kts
24-Jul-18 09:56 34.846706 -120.264952 127 8992ft 237kts
24-Jul-18 09:57 34.804458 -120.202671 127 8990ft 238kts
24-Jul-18 09:58 34.762303 -120.140570 127 8989ft 238kts
24-Jul-18 09:59 34.720022 -120.078459 127 8979ft 238kts
24-Jul-18 10:00 34.677541 -120.016162 127 8971ft 239kts
24-Jul-18 10:01 34.635231 -119.954227 127 8967ft 238kts
24-Jul-18 10:02 34.593036 -119.892567 127 8956ft 237kts
24-Jul-18 10:03 34.550742 -119.830868 127 8939ft 237kts
24-Jul-18 10:04 34.508761 -119.769365 124 8928ft 236kts
24-Jul-18 10:05 34.472640 -119.702768 121 8928ft 235kts
24-Jul-18 10:06 34.436456 -119.636070 121 8932ft 240kts
24-Jul-18 10:07 34.400039 -119.569119 121 8935ft 236kts
24-Jul-18 10:08 34.363817 -119.502639 121 8942ft 236kts
24-Jul-18 10:09 34.327782 -119.436615 121 8957ft 235kts
24-Jul-18 10:10 34.291594 -119.370439 121 8952ft 235kts
24-Jul-18 10:11 34.255503 -119.304565 121 8944ft 235kts
24-Jul-18 10:12 34.219478 -119.238926 121 8938ft 234kts
24-Jul-18 10:13 34.183138 -119.172830 121 8928ft 239kts
24-Jul-18 10:14 34.146849 -119.106965 121 8934ft 234kts
24-Jul-18 10:15 34.104042 -119.049678 159 8936ft 235kts
24-Jul-18 10:16 34.039176 -119.041557 174 8936ft 235kts
24-Jul-18 10:17 33.974078 -119.034666 174 8936ft 235kts
24-Jul-18 10:18 33.908746 -119.027826 174 8936ft 235kts
24-Jul-18 10:19 33.843641 -119.021017 174 8937ft 235kts
24-Jul-18 10:20 33.781759 -119.002380 136 8937ft 233kts
24-Jul-18 10:21 33.740429 -118.942535 128 8952ft 232kts
24-Jul-18 10:22 33.699147 -118.883083 128 8958ft 231kts
24-Jul-18 10:23 33.657786 -118.823629 129 8961ft 231kts
24-Jul-18 10:24 33.616533 -118.764419 129 8962ft 231kts
24-Jul-18 10:25 33.590703 -118.697857 81 8678ft 233kts
24-Jul-18 10:26 33.603503 -118.621829 76 7578ft 231kts
24-Jul-18 10:27 33.612135 -118.546049 87 6486ft 229kts
24-Jul-18 10:28 33.610436 -118.472451 87 5776ft 221kts
24-Jul-18 10:29 33.612797 -118.399181 86 5000ft 216kts
24-Jul-18 10:30 33.615500 -118.328856 86 4949ft 208kts
24-Jul-18 10:31 33.618288 -118.260368 86 4945ft 199kts
24-Jul-18 10:32 33.620974 -118.196999 86 5020ft 184kts
24-Jul-18 10:33 33.623792 -118.135008 85 4191ft 188kts
24-Jul-18 10:34 33.649925 -118.086314 40 3196ft 173kts
24-Jul-18 10:35 33.685388 -118.048322 40 2387ft 174kts
24-Jul-18 10:36 33.724822 -118.046165 326 2006ft 146kts
24-Jul-18 10:37 33.755345 -118.074530 312 1692ft 132kts
24-Jul-18 10:38 33.779228 -118.104301 312 1072ft 119kts
24-Jul-18 10:39 33.801297 -118.131312 310 362ft 107kts
24-Jul-18 10:40 33.817794 -118.151443 314 65ft 37kts
24-Jul-18 10:41 33.818866 -118.153866 269 65ft 0kts
24-Jul-18 10:42 33.817232 -118.157371 178 65ft 23kts
24-Jul-18 10:43 33.813024 -118.155196 91 65ft 20kts
24-Jul-18 10:44 33.812559 -118.152554 271 65ft 0kts
24-Jul-18 10:45 33.812559 -118.152559 271 65ft 0kts
24-Jul-18 10:46 33.812559 -118.152559 271 65ft 0kts
24-Jul-18 10:47 33.812559 -118.152559 271 65ft 0kts

Navigation Log

Ident Type
Flight plan parsing failed, navigation log unavailable